sensor_id;sensor_type;location;lat;lon;timestamp;temperature;humidity
13093;DHT22;6612;49.568;11.000;2023-04-03T00:00:08;8.30;56.10
13093;DHT22;6612;49.568;11.000;2023-04-03T00:02:37;8.30;56.00
13093;DHT22;6612;49.568;11.000;2023-04-03T00:05:04;8.30;56.00
13093;DHT22;6612;49.568;11.000;2023-04-03T00:07:31;8.30;56.20
13093;DHT22;6612;49.568;11.000;2023-04-03T00:09:58;8.30;56.20
13093;DHT22;6612;49.568;11.000;2023-04-03T00:12:25;8.30;56.20
13093;DHT22;6612;49.568;11.000;2023-04-03T00:14:52;8.30;56.10
13093;DHT22;6612;49.568;11.000;2023-04-03T00:17:19;8.30;55.90
13093;DHT22;6612;49.568;11.000;2023-04-03T00:19:48;8.30;55.80
13093;DHT22;6612;49.568;11.000;2023-04-03T00:22:15;8.30;55.70
13093;DHT22;6612;49.568;11.000;2023-04-03T00:24:42;8.30;55.70
13093;DHT22;6612;49.568;11.000;2023-04-03T00:27:09;8.30;55.70
13093;DHT22;6612;49.568;11.000;2023-04-03T00:29:36;8.30;55.70
13093;DHT22;6612;49.568;11.000;2023-04-03T00:32:03;8.30;55.70
13093;DHT22;6612;49.568;11.000;2023-04-03T00:34:31;8.20;55.70
13093;DHT22;6612;49.568;11.000;2023-04-03T00:37:00;8.20;55.60
13093;DHT22;6612;49.568;11.000;2023-04-03T00:39:27;8.20;55.60
13093;DHT22;6612;49.568;11.000;2023-04-03T00:41:54;8.20;55.60
13093;DHT22;6612;49.568;11.000;2023-04-03T00:44:23;8.20;55.40
13093;DHT22;6612;49.568;11.000;2023-04-03T00:47:11;8.20;55.20
13093;DHT22;6612;49.568;11.000;2023-04-03T00:49:40;8.10;55.20
13093;DHT22;6612;49.568;11.000;2023-04-03T00:52:11;8.10;55.40
13093;DHT22;6612;49.568;11.000;2023-04-03T00:54:41;8.10;55.10
13093;DHT22;6612;49.568;11.000;2023-04-03T00:57:10;8.10;55.50
13093;DHT22;6612;49.568;11.000;2023-04-03T00:59:41;8.10;56.30
13093;DHT22;6612;49.568;11.000;2023-04-03T01:02:09;8.10;55.70
13093;DHT22;6612;49.568;11.000;2023-04-03T01:04:38;8.10;56.00
13093;DHT22;6612;49.568;11.000;2023-04-03T01:07:10;8.00;55.80
13093;DHT22;6612;49.568;11.000;2023-04-03T01:09:37;8.10;55.90
13093;DHT22;6612;49.568;11.000;2023-04-03T01:12:15;8.10;56.20
13093;DHT22;6612;49.568;11.000;2023-04-03T01:14:43;8.10;55.30
13093;DHT22;6612;49.568;11.000;2023-04-03T01:17:27;8.10;56.00
13093;DHT22;6612;49.568;11.000;2023-04-03T01:20:11;8.10;55.00
13093;DHT22;6612;49.568;11.000;2023-04-03T01:22:45;8.10;55.40
13093;DHT22;6612;49.568;11.000;2023-04-03T01:25:15;8.00;55.70
13093;DHT22;6612;49.568;11.000;2023-04-03T01:27:42;8.00;55.90
13093;DHT22;6612;49.568;11.000;2023-04-03T01:30:10;8.00;55.90
13093;DHT22;6612;49.568;11.000;2023-04-03T01:32:39;8.00;55.90
13093;DHT22;6612;49.568;11.000;2023-04-03T01:35:07;7.90;55.80
13093;DHT22;6612;49.568;11.000;2023-04-03T01:37:34;7.90;56.00
13093;DHT22;6612;49.568;11.000;2023-04-03T01:40:02;7.90;56.20
13093;DHT22;6612;49.568;11.000;2023-04-03T01:42:29;7.90;56.20
13093;DHT22;6612;49.568;11.000;2023-04-03T01:44:56;7.80;56.10
13093;DHT22;6612;49.568;11.000;2023-04-03T01:47:23;7.80;56.20
13093;DHT22;6612;49.568;11.000;2023-04-03T01:49:52;7.80;56.30
13093;DHT22;6612;49.568;11.000;2023-04-03T01:52:19;7.80;56.20
13093;DHT22;6612;49.568;11.000;2023-04-03T01:54:46;7.70;56.10
13093;DHT22;6612;49.568;11.000;2023-04-03T01:57:13;7.70;56.20
13093;DHT22;6612;49.568;11.000;2023-04-03T01:59:40;7.70;56.20
13093;DHT22;6612;49.568;11.000;2023-04-03T02:02:07;7.70;56.20
13093;DHT22;6612;49.568;11.000;2023-04-03T02:04:35;7.70;56.20
13093;DHT22;6612;49.568;11.000;2023-04-03T02:07:03;7.60;56.10
13093;DHT22;6612;49.568;11.000;2023-04-03T02:09:30;7.60;56.10
13093;DHT22;6612;49.568;11.000;2023-04-03T02:11:57;7.60;56.20
13093;DHT22;6612;49.568;11.000;2023-04-03T02:14:24;7.50;56.20
13093;DHT22;6612;49.568;11.000;2023-04-03T02:16:53;7.50;56.20
13093;DHT22;6612;49.568;11.000;2023-04-03T02:19:20;7.50;56.20
13093;DHT22;6612;49.568;11.000;2023-04-03T02:21:47;7.40;56.30
13093;DHT22;6612;49.568;11.000;2023-04-03T02:24:15;7.40;56.30
13093;DHT22;6612;49.568;11.000;2023-04-03T02:26:42;7.40;56.40
13093;DHT22;6612;49.568;11.000;2023-04-03T02:29:09;7.30;56.40
13093;DHT22;6612;49.568;11.000;2023-04-03T02:31:36;7.30;56.60
13093;DHT22;6612;49.568;11.000;2023-04-03T02:34:03;7.30;56.70
13093;DHT22;6612;49.568;11.000;2023-04-03T02:36:31;7.30;56.70
13093;DHT22;6612;49.568;11.000;2023-04-03T02:38:58;7.30;56.90
13093;DHT22;6612;49.568;11.000;2023-04-03T02:41:26;7.30;57.10
13093;DHT22;6612;49.568;11.000;2023-04-03T02:44:00;7.30;57.00
13093;DHT22;6612;49.568;11.000;2023-04-03T02:46:27;7.30;57.40
13093;DHT22;6612;49.568;11.000;2023-04-03T02:48:54;7.30;57.20
13093;DHT22;6612;49.568;11.000;2023-04-03T02:51:21;7.30;57.40
13093;DHT22;6612;49.568;11.000;2023-04-03T02:53:50;7.30;57.50
13093;DHT22;6612;49.568;11.000;2023-04-03T02:56:17;7.40;57.60
13093;DHT22;6612;49.568;11.000;2023-04-03T02:58:47;7.40;57.70
13093;DHT22;6612;49.568;11.000;2023-04-03T03:01:14;7.40;57.70
13093;DHT22;6612;49.568;11.000;2023-04-03T03:03:41;7.40;57.90
13093;DHT22;6612;49.568;11.000;2023-04-03T03:06:11;7.40;57.70
13093;DHT22;6612;49.568;11.000;2023-04-03T03:08:38;7.40;57.70
13093;DHT22;6612;49.568;11.000;2023-04-03T03:11:06;7.50;58.10
13093;DHT22;6612;49.568;11.000;2023-04-03T03:13:34;7.50;58.00
13093;DHT22;6612;49.568;11.000;2023-04-03T03:16:03;7.50;58.00
13093;DHT22;6612;49.568;11.000;2023-04-03T03:18:31;7.50;57.80
13093;DHT22;6612;49.568;11.000;2023-04-03T03:21:00;7.50;58.00
13093;DHT22;6612;49.568;11.000;2023-04-03T03:23:28;7.50;57.90
13093;DHT22;6612;49.568;11.000;2023-04-03T03:25:57;7.50;57.90
13093;DHT22;6612;49.568;11.000;2023-04-03T03:28:24;7.50;58.20
13093;DHT22;6612;49.568;11.000;2023-04-03T03:30:51;7.50;58.20
13093;DHT22;6612;49.568;11.000;2023-04-03T03:33:20;7.50;58.20
13093;DHT22;6612;49.568;11.000;2023-04-03T03:35:47;7.50;58.90
13093;DHT22;6612;49.568;11.000;2023-04-03T03:38:14;7.50;58.30
13093;DHT22;6612;49.568;11.000;2023-04-03T03:40:41;7.50;58.50
13093;DHT22;6612;49.568;11.000;2023-04-03T03:43:08;7.50;58.40
13093;DHT22;6612;49.568;11.000;2023-04-03T03:45:35;7.40;58.40
13093;DHT22;6612;49.568;11.000;2023-04-03T03:48:04;7.50;58.50
13093;DHT22;6612;49.568;11.000;2023-04-03T03:50:32;7.50;58.40
13093;DHT22;6612;49.568;11.000;2023-04-03T03:53:00;7.40;59.20
13093;DHT22;6612;49.568;11.000;2023-04-03T03:55:27;7.40;58.50
13093;DHT22;6612;49.568;11.000;2023-04-03T03:57:54;7.40;58.50
13093;DHT22;6612;49.568;11.000;2023-04-03T04:00:22;7.40;58.70
13093;DHT22;6612;49.568;11.000;2023-04-03T04:02:49;7.40;58.60
13093;DHT22;6612;49.568;11.000;2023-04-03T04:05:16;7.40;58.70
13093;DHT22;6612;49.568;11.000;2023-04-03T04:07:46;7.40;58.60
13093;DHT22;6612;49.568;11.000;2023-04-03T04:10:13;7.40;58.50
13093;DHT22;6612;49.568;11.000;2023-04-03T04:12:40;7.40;58.50
13093;DHT22;6612;49.568;11.000;2023-04-03T04:15:08;7.40;58.60
13093;DHT22;6612;49.568;11.000;2023-04-03T04:17:36;7.30;58.40
13093;DHT22;6612;49.568;11.000;2023-04-03T04:20:04;7.30;58.50
13093;DHT22;6612;49.568;11.000;2023-04-03T04:22:32;7.30;58.50
13093;DHT22;6612;49.568;11.000;2023-04-03T04:25:01;7.20;58.40
13093;DHT22;6612;49.568;11.000;2023-04-03T04:27:28;7.20;58.40
13093;DHT22;6612;49.568;11.000;2023-04-03T04:29:55;7.20;58.60
13093;DHT22;6612;49.568;11.000;2023-04-03T04:32:22;7.20;58.50
13093;DHT22;6612;49.568;11.000;2023-04-03T04:34:49;7.10;58.50
13093;DHT22;6612;49.568;11.000;2023-04-03T04:37:16;7.10;58.40
13093;DHT22;6612;49.568;11.000;2023-04-03T04:39:43;7.00;58.40
13093;DHT22;6612;49.568;11.000;2023-04-03T04:42:12;7.00;58.30
13093;DHT22;6612;49.568;11.000;2023-04-03T04:44:39;6.90;58.40
13093;DHT22;6612;49.568;11.000;2023-04-03T04:47:06;6.90;58.40
13093;DHT22;6612;49.568;11.000;2023-04-03T04:49:33;6.90;58.40
13093;DHT22;6612;49.568;11.000;2023-04-03T04:52:00;6.80;58.40
13093;DHT22;6612;49.568;11.000;2023-04-03T04:54:27;6.80;58.70
13093;DHT22;6612;49.568;11.000;2023-04-03T04:56:54;6.70;58.60
13093;DHT22;6612;49.568;11.000;2023-04-03T04:59:23;6.70;58.80
13093;DHT22;6612;49.568;11.000;2023-04-03T05:01:50;6.60;58.70
13093;DHT22;6612;49.568;11.000;2023-04-03T05:04:17;6.60;58.90
13093;DHT22;6612;49.568;11.000;2023-04-03T05:06:44;6.60;58.90
13093;DHT22;6612;49.568;11.000;2023-04-03T05:09:11;6.60;59.10
13093;DHT22;6612;49.568;11.000;2023-04-03T05:11:38;6.50;58.90
13093;DHT22;6612;49.568;11.000;2023-04-03T05:14:05;6.50;59.10
13093;DHT22;6612;49.568;11.000;2023-04-03T05:16:34;6.50;59.40
13093;DHT22;6612;49.568;11.000;2023-04-03T05:19:02;6.50;59.40
13093;DHT22;6612;49.568;11.000;2023-04-03T05:21:29;6.50;59.30
13093;DHT22;6612;49.568;11.000;2023-04-03T05:23:58;6.50;59.50
13093;DHT22;6612;49.568;11.000;2023-04-03T05:26:28;6.50;59.70
13093;DHT22;6612;49.568;11.000;2023-04-03T05:28:55;6.50;59.70
13093;DHT22;6612;49.568;11.000;2023-04-03T05:31:22;6.50;59.90
13093;DHT22;6612;49.568;11.000;2023-04-03T05:33:51;6.50;60.10
13093;DHT22;6612;49.568;11.000;2023-04-03T05:36:18;6.50;60.10
13093;DHT22;6612;49.568;11.000;2023-04-03T05:38:45;6.50;60.30
13093;DHT22;6612;49.568;11.000;2023-04-03T05:41:13;6.50;60.40
13093;DHT22;6612;49.568;11.000;2023-04-03T05:43:40;6.60;60.50
13093;DHT22;6612;49.568;11.000;2023-04-03T05:46:10;6.60;60.70
13093;DHT22;6612;49.568;11.000;2023-04-03T05:48:38;6.60;60.60
13093;DHT22;6612;49.568;11.000;2023-04-03T05:51:09;6.70;60.90
13093;DHT22;6612;49.568;11.000;2023-04-03T05:53:40;6.70;60.70
13093;DHT22;6612;49.568;11.000;2023-04-03T05:56:08;6.80;60.90
13093;DHT22;6612;49.568;11.000;2023-04-03T05:58:35;6.80;61.00
13093;DHT22;6612;49.568;11.000;2023-04-03T06:01:02;6.90;61.00
13093;DHT22;6612;49.568;11.000;2023-04-03T06:03:29;6.90;61.20
13093;DHT22;6612;49.568;11.000;2023-04-03T06:05:56;6.90;61.00
13093;DHT22;6612;49.568;11.000;2023-04-03T06:08:24;7.00;61.20
13093;DHT22;6612;49.568;11.000;2023-04-03T06:10:51;7.00;60.90
13093;DHT22;6612;49.568;11.000;2023-04-03T06:13:18;7.10;61.10
13093;DHT22;6612;49.568;11.000;2023-04-03T06:15:46;7.10;61.20
13093;DHT22;6612;49.568;11.000;2023-04-03T06:18:14;7.20;61.20
13093;DHT22;6612;49.568;11.000;2023-04-03T06:20:41;7.20;61.30
13093;DHT22;6612;49.568;11.000;2023-04-03T06:23:08;7.30;61.40
13093;DHT22;6612;49.568;11.000;2023-04-03T06:25:37;7.30;61.40
13093;DHT22;6612;49.568;11.000;2023-04-03T06:28:04;7.40;61.20
13093;DHT22;6612;49.568;11.000;2023-04-03T06:30:35;7.50;61.40
13093;DHT22;6612;49.568;11.000;2023-04-03T06:33:03;7.60;61.80
13093;DHT22;6612;49.568;11.000;2023-04-03T06:35:31;7.70;61.90
13093;DHT22;6612;49.568;11.000;2023-04-03T06:38:01;7.80;61.90
13093;DHT22;6612;49.568;11.000;2023-04-03T06:40:30;7.90;61.60
13093;DHT22;6612;49.568;11.000;2023-04-03T06:42:59;8.00;61.20
13093;DHT22;6612;49.568;11.000;2023-04-03T06:45:26;8.10;60.60
13093;DHT22;6612;49.568;11.000;2023-04-03T06:47:54;8.10;60.70
13093;DHT22;6612;49.568;11.000;2023-04-03T06:50:22;8.20;60.80
13093;DHT22;6612;49.568;11.000;2023-04-03T06:52:50;8.20;60.40
13093;DHT22;6612;49.568;11.000;2023-04-03T06:55:18;8.30;60.60
13093;DHT22;6612;49.568;11.000;2023-04-03T06:57:46;8.40;60.70
13093;DHT22;6612;49.568;11.000;2023-04-03T07:00:15;8.40;61.60
13093;DHT22;6612;49.568;11.000;2023-04-03T07:02:43;8.50;60.10
13093;DHT22;6612;49.568;11.000;2023-04-03T07:05:11;8.50;60.20
13093;DHT22;6612;49.568;11.000;2023-04-03T07:07:39;8.60;59.50
13093;DHT22;6612;49.568;11.000;2023-04-03T07:10:08;8.60;59.80
13093;DHT22;6612;49.568;11.000;2023-04-03T07:12:36;8.60;60.00
13093;DHT22;6612;49.568;11.000;2023-04-03T07:15:04;8.70;60.20
13093;DHT22;6612;49.568;11.000;2023-04-03T07:17:34;8.80;60.10
13093;DHT22;6612;49.568;11.000;2023-04-03T07:20:02;8.80;60.30
13093;DHT22;6612;49.568;11.000;2023-04-03T07:22:30;8.90;59.90
13093;DHT22;6612;49.568;11.000;2023-04-03T07:24:57;9.00;60.10
13093;DHT22;6612;49.568;11.000;2023-04-03T07:27:24;9.10;60.20
13093;DHT22;6612;49.568;11.000;2023-04-03T07:29:51;9.20;60.80
13093;DHT22;6612;49.568;11.000;2023-04-03T07:32:19;9.40;61.20
13093;DHT22;6612;49.568;11.000;2023-04-03T07:34:47;9.50;61.60
13093;DHT22;6612;49.568;11.000;2023-04-03T07:37:14;9.70;61.30
13093;DHT22;6612;49.568;11.000;2023-04-03T07:39:43;9.90;60.90
13093;DHT22;6612;49.568;11.000;2023-04-03T07:42:11;10.10;59.00
13093;DHT22;6612;49.568;11.000;2023-04-03T07:44:38;10.20;58.40
13093;DHT22;6612;49.568;11.000;2023-04-03T07:47:06;10.30;58.70
13093;DHT22;6612;49.568;11.000;2023-04-03T07:49:33;10.40;58.70
13093;DHT22;6612;49.568;11.000;2023-04-03T07:52:05;10.50;58.60
13093;DHT22;6612;49.568;11.000;2023-04-03T07:54:32;10.60;58.30
13093;DHT22;6612;49.568;11.000;2023-04-03T07:57:00;10.70;58.10
13093;DHT22;6612;49.568;11.000;2023-04-03T07:59:28;10.80;58.10
13093;DHT22;6612;49.568;11.000;2023-04-03T08:01:55;10.90;57.80
13093;DHT22;6612;49.568;11.000;2023-04-03T08:04:22;11.00;58.00
13093;DHT22;6612;49.568;11.000;2023-04-03T08:06:50;11.10;57.80
13093;DHT22;6612;49.568;11.000;2023-04-03T08:09:19;11.20;57.90
13093;DHT22;6612;49.568;11.000;2023-04-03T08:11:45;11.40;57.60
13093;DHT22;6612;49.568;11.000;2023-04-03T08:14:13;11.50;57.90
13093;DHT22;6612;49.568;11.000;2023-04-03T08:16:44;11.70;57.50
13093;DHT22;6612;49.568;11.000;2023-04-03T08:19:12;11.80;57.10
13093;DHT22;6612;49.568;11.000;2023-04-03T08:21:41;11.90;57.00
13093;DHT22;6612;49.568;11.000;2023-04-03T08:24:08;11.90;56.50
13093;DHT22;6612;49.568;11.000;2023-04-03T08:26:37;11.90;56.00
13093;DHT22;6612;49.568;11.000;2023-04-03T08:29:04;11.90;55.20
13093;DHT22;6612;49.568;11.000;2023-04-03T08:31:31;11.90;55.50
13093;DHT22;6612;49.568;11.000;2023-04-03T08:33:58;11.90;55.20
13093;DHT22;6612;49.568;11.000;2023-04-03T08:36:27;12.00;56.50
13093;DHT22;6612;49.568;11.000;2023-04-03T08:38:55;12.20;58.70
13093;DHT22;6612;49.568;11.000;2023-04-03T08:41:29;12.60;60.20
13093;DHT22;6612;49.568;11.000;2023-04-03T08:44:14;13.10;58.80
13093;DHT22;6612;49.568;11.000;2023-04-03T08:47:04;13.60;59.00
13093;DHT22;6612;49.568;11.000;2023-04-03T08:49:41;14.10;56.80
13093;DHT22;6612;49.568;11.000;2023-04-03T08:52:15;14.40;57.80
13093;DHT22;6612;49.568;11.000;2023-04-03T08:54:49;14.60;55.10
13093;DHT22;6612;49.568;11.000;2023-04-03T08:57:24;14.50;52.20
13093;DHT22;6612;49.568;11.000;2023-04-03T08:59:54;14.30;51.50
13093;DHT22;6612;49.568;11.000;2023-04-03T09:02:26;14.10;51.20
13093;DHT22;6612;49.568;11.000;2023-04-03T09:04:54;14.00;51.60
13093;DHT22;6612;49.568;11.000;2023-04-03T09:07:28;13.90;53.20
13093;DHT22;6612;49.568;11.000;2023-04-03T09:09:59;13.90;52.00
13093;DHT22;6612;49.568;11.000;2023-04-03T09:12:33;14.00;53.50
13093;DHT22;6612;49.568;11.000;2023-04-03T09:15:13;14.00;52.20
13093;DHT22;6612;49.568;11.000;2023-04-03T09:17:51;14.10;51.40
13093;DHT22;6612;49.568;11.000;2023-04-03T09:20:24;14.10;50.90
13093;DHT22;6612;49.568;11.000;2023-04-03T09:22:52;14.10;51.20
13093;DHT22;6612;49.568;11.000;2023-04-03T09:25:22;14.00;51.20
13093;DHT22;6612;49.568;11.000;2023-04-03T09:27:50;13.90;50.30
13093;DHT22;6612;49.568;11.000;2023-04-03T09:30:20;13.80;49.50
13093;DHT22;6612;49.568;11.000;2023-04-03T09:32:50;13.60;48.10
13093;DHT22;6612;49.568;11.000;2023-04-03T09:35:21;13.40;48.30
13093;DHT22;6612;49.568;11.000;2023-04-03T09:37:50;13.20;48.10
13093;DHT22;6612;49.568;11.000;2023-04-03T09:40:30;13.10;49.40
13093;DHT22;6612;49.568;11.000;2023-04-03T09:42:59;13.00;47.60
13093;DHT22;6612;49.568;11.000;2023-04-03T09:45:30;12.90;49.40
13093;DHT22;6612;49.568;11.000;2023-04-03T09:48:08;12.90;49.20
13093;DHT22;6612;49.568;11.000;2023-04-03T09:50:36;12.90;48.40
13093;DHT22;6612;49.568;11.000;2023-04-03T09:53:24;12.80;49.20
13093;DHT22;6612;49.568;11.000;2023-04-03T09:55:52;12.80;47.60
13093;DHT22;6612;49.568;11.000;2023-04-03T09:58:26;12.70;48.60
13093;DHT22;6612;49.568;11.000;2023-04-03T10:00:59;12.60;48.70
13093;DHT22;6612;49.568;11.000;2023-04-03T10:03:30;12.60;47.90
13093;DHT22;6612;49.568;11.000;2023-04-03T10:05:57;12.60;48.10
13093;DHT22;6612;49.568;11.000;2023-04-03T10:08:28;12.50;47.40
13093;DHT22;6612;49.568;11.000;2023-04-03T10:11:14;12.40;47.60
13093;DHT22;6612;49.568;11.000;2023-04-03T10:13:56;12.40;47.00
13093;DHT22;6612;49.568;11.000;2023-04-03T10:16:32;12.50;47.70
13093;DHT22;6612;49.568;11.000;2023-04-03T10:19:31;12.60;49.70
13093;DHT22;6612;49.568;11.000;2023-04-03T10:22:02;12.70;49.00
13093;DHT22;6612;49.568;11.000;2023-04-03T10:24:38;13.00;50.80
13093;DHT22;6612;49.568;11.000;2023-04-03T10:27:15;13.20;50.30
13093;DHT22;6612;49.568;11.000;2023-04-03T10:29:50;13.50;51.80
13093;DHT22;6612;49.568;11.000;2023-04-03T10:32:33;13.70;50.20
13093;DHT22;6612;49.568;11.000;2023-04-03T10:35:12;14.00;49.60
13093;DHT22;6612;49.568;11.000;2023-04-03T10:37:52;14.20;50.90
13093;DHT22;6612;49.568;11.000;2023-04-03T10:40:29;14.40;49.90
13093;DHT22;6612;49.568;11.000;2023-04-03T10:43:04;14.60;50.00
13093;DHT22;6612;49.568;11.000;2023-04-03T10:45:48;14.70;48.80
13093;DHT22;6612;49.568;11.000;2023-04-03T10:48:26;14.70;46.50
13093;DHT22;6612;49.568;11.000;2023-04-03T10:51:01;14.70;48.10
13093;DHT22;6612;49.568;11.000;2023-04-03T10:53:36;14.80;48.70
13093;DHT22;6612;49.568;11.000;2023-04-03T10:56:11;14.90;48.20
13093;DHT22;6612;49.568;11.000;2023-04-03T10:58:44;15.00;47.50
13093;DHT22;6612;49.568;11.000;2023-04-03T11:01:14;15.10;48.00
13093;DHT22;6612;49.568;11.000;2023-04-03T11:03:46;15.10;47.90
13093;DHT22;6612;49.568;11.000;2023-04-03T11:06:15;15.10;46.50
13093;DHT22;6612;49.568;11.000;2023-04-03T11:08:45;15.00;46.00
13093;DHT22;6612;49.568;11.000;2023-04-03T11:11:16;14.80;45.30
13093;DHT22;6612;49.568;11.000;2023-04-03T11:13:48;14.60;45.00
13093;DHT22;6612;49.568;11.000;2023-04-03T11:16:21;14.40;44.10
13093;DHT22;6612;49.568;11.000;2023-04-03T11:18:54;14.10;43.80
13093;DHT22;6612;49.568;11.000;2023-04-03T11:21:27;13.90;44.20
13093;DHT22;6612;49.568;11.000;2023-04-03T11:23:57;13.70;44.90
13093;DHT22;6612;49.568;11.000;2023-04-03T11:26:27;13.60;45.50
13093;DHT22;6612;49.568;11.000;2023-04-03T11:28:59;13.60;45.50
13093;DHT22;6612;49.568;11.000;2023-04-03T11:31:35;13.50;45.30
13093;DHT22;6612;49.568;11.000;2023-04-03T11:34:14;13.50;45.00
13093;DHT22;6612;49.568;11.000;2023-04-03T11:36:48;13.40;44.50
13093;DHT22;6612;49.568;11.000;2023-04-03T11:39:21;13.30;44.90
13093;DHT22;6612;49.568;11.000;2023-04-03T11:41:49;13.30;44.90
13093;DHT22;6612;49.568;11.000;2023-04-03T11:44:33;13.20;45.90
13093;DHT22;6612;49.568;11.000;2023-04-03T11:47:03;13.20;44.20
13093;DHT22;6612;49.568;11.000;2023-04-03T11:49:51;13.20;45.70
13093;DHT22;6612;49.568;11.000;2023-04-03T11:55:56;13.20;43.70
13093;DHT22;6612;49.568;11.000;2023-04-03T11:58:24;13.20;43.80
13093;DHT22;6612;49.568;11.000;2023-04-03T12:01:06;13.20;45.60
13093;DHT22;6612;49.568;11.000;2023-04-03T12:10:13;13.00;43.70
13093;DHT22;6612;49.568;11.000;2023-04-03T12:12:42;12.90;43.20
13093;DHT22;6612;49.568;11.000;2023-04-03T12:15:24;12.90;46.00
13093;DHT22;6612;49.568;11.000;2023-04-03T12:17:52;12.90;44.00
13093;DHT22;6612;49.568;11.000;2023-04-03T12:20:54;12.80;44.30
13093;DHT22;6612;49.568;11.000;2023-04-03T12:23:30;12.70;43.10
13093;DHT22;6612;49.568;11.000;2023-04-03T12:26:22;12.70;43.90
13093;DHT22;6612;49.568;11.000;2023-04-03T12:28:53;12.70;43.70
13093;DHT22;6612;49.568;11.000;2023-04-03T12:31:24;12.70;45.70
13093;DHT22;6612;49.568;11.000;2023-04-03T12:34:04;12.70;45.10
13093;DHT22;6612;49.568;11.000;2023-04-03T12:36:42;12.70;44.50
13093;DHT22;6612;49.568;11.000;2023-04-03T12:39:18;12.70;44.90
13093;DHT22;6612;49.568;11.000;2023-04-03T12:41:58;12.70;44.80
13093;DHT22;6612;49.568;11.000;2023-04-03T12:44:40;12.80;44.50
13093;DHT22;6612;49.568;11.000;2023-04-03T12:47:23;12.80;45.20
13093;DHT22;6612;49.568;11.000;2023-04-03T12:49:53;12.90;44.80
13093;DHT22;6612;49.568;11.000;2023-04-03T12:52:32;12.90;45.70
13093;DHT22;6612;49.568;11.000;2023-04-03T12:55:02;12.90;44.70
13093;DHT22;6612;49.568;11.000;2023-04-03T12:57:32;12.90;45.50
13093;DHT22;6612;49.568;11.000;2023-04-03T12:59:59;12.90;45.00
13093;DHT22;6612;49.568;11.000;2023-04-03T13:02:28;12.90;44.90
13093;DHT22;6612;49.568;11.000;2023-04-03T13:04:57;12.80;44.30
13093;DHT22;6612;49.568;11.000;2023-04-03T13:07:28;12.70;44.30
13093;DHT22;6612;49.568;11.000;2023-04-03T13:10:14;12.60;44.40
13093;DHT22;6612;49.568;11.000;2023-04-03T13:12:49;12.70;43.80
13093;DHT22;6612;49.568;11.000;2023-04-03T13:15:19;12.60;45.30
13093;DHT22;6612;49.568;11.000;2023-04-03T13:17:48;12.70;45.90
13093;DHT22;6612;49.568;11.000;2023-04-03T13:20:21;12.70;45.00
13093;DHT22;6612;49.568;11.000;2023-04-03T13:23:01;12.60;44.60
13093;DHT22;6612;49.568;11.000;2023-04-03T13:25:32;12.60;44.20
13093;DHT22;6612;49.568;11.000;2023-04-03T13:28:04;12.50;44.20
13093;DHT22;6612;49.568;11.000;2023-04-03T13:30:35;12.40;43.20
13093;DHT22;6612;49.568;11.000;2023-04-03T13:33:05;12.40;44.10
13093;DHT22;6612;49.568;11.000;2023-04-03T13:35:37;12.30;43.90
13093;DHT22;6612;49.568;11.000;2023-04-03T13:38:21;12.40;44.40
13093;DHT22;6612;49.568;11.000;2023-04-03T13:40:50;12.40;44.30
13093;DHT22;6612;49.568;11.000;2023-04-03T13:43:21;12.40;44.50
13093;DHT22;6612;49.568;11.000;2023-04-03T13:46:22;12.40;44.10
13093;DHT22;6612;49.568;11.000;2023-04-03T13:48:52;12.40;42.70
13093;DHT22;6612;49.568;11.000;2023-04-03T13:51:23;12.40;44.80
13093;DHT22;6612;49.568;11.000;2023-04-03T13:53:53;12.50;44.40
13093;DHT22;6612;49.568;11.000;2023-04-03T13:56:30;12.50;44.90
13093;DHT22;6612;49.568;11.000;2023-04-03T13:59:05;12.60;44.50
13093;DHT22;6612;49.568;11.000;2023-04-03T14:01:40;12.60;45.40
13093;DHT22;6612;49.568;11.000;2023-04-03T14:04:16;12.70;45.10
13093;DHT22;6612;49.568;11.000;2023-04-03T14:06:44;12.70;43.70
13093;DHT22;6612;49.568;11.000;2023-04-03T14:09:14;12.70;44.30
13093;DHT22;6612;49.568;11.000;2023-04-03T14:11:42;12.70;44.20
13093;DHT22;6612;49.568;11.000;2023-04-03T14:14:15;12.70;44.20
13093;DHT22;6612;49.568;11.000;2023-04-03T14:16:50;12.60;43.20
13093;DHT22;6612;49.568;11.000;2023-04-03T14:19:21;12.50;43.00
13093;DHT22;6612;49.568;11.000;2023-04-03T14:21:49;12.40;43.20
13093;DHT22;6612;49.568;11.000;2023-04-03T14:24:18;12.40;44.40
13093;DHT22;6612;49.568;11.000;2023-04-03T14:26:46;12.40;43.80
13093;DHT22;6612;49.568;11.000;2023-04-03T14:29:17;12.30;44.00
13093;DHT22;6612;49.568;11.000;2023-04-03T14:31:46;12.30;43.80
13093;DHT22;6612;49.568;11.000;2023-04-03T14:34:15;12.30;43.60
13093;DHT22;6612;49.568;11.000;2023-04-03T14:36:44;12.30;43.80
13093;DHT22;6612;49.568;11.000;2023-04-03T14:39:16;12.30;43.70
13093;DHT22;6612;49.568;11.000;2023-04-03T14:41:45;12.20;43.30
13093;DHT22;6612;49.568;11.000;2023-04-03T14:44:12;12.30;44.30
13093;DHT22;6612;49.568;11.000;2023-04-03T14:46:43;12.20;44.20
13093;DHT22;6612;49.568;11.000;2023-04-03T14:49:14;12.30;43.90
13093;DHT22;6612;49.568;11.000;2023-04-03T14:51:42;12.20;43.20
13093;DHT22;6612;49.568;11.000;2023-04-03T14:54:13;12.20;43.40
13093;DHT22;6612;49.568;11.000;2023-04-03T14:56:41;12.20;42.80
13093;DHT22;6612;49.568;11.000;2023-04-03T14:59:12;12.10;43.40
13093;DHT22;6612;49.568;11.000;2023-04-03T15:01:41;12.10;43.30
13093;DHT22;6612;49.568;11.000;2023-04-03T15:04:12;12.10;43.20
13093;DHT22;6612;49.568;11.000;2023-04-03T15:06:42;12.10;42.90
13093;DHT22;6612;49.568;11.000;2023-04-03T15:09:18;12.10;43.60
13093;DHT22;6612;49.568;11.000;2023-04-03T15:11:47;12.10;42.70
13093;DHT22;6612;49.568;11.000;2023-04-03T15:14:14;12.10;43.50
13093;DHT22;6612;49.568;11.000;2023-04-03T15:16:43;12.10;43.80
13093;DHT22;6612;49.568;11.000;2023-04-03T15:19:11;12.10;43.50
13093;DHT22;6612;49.568;11.000;2023-04-03T15:21:39;12.10;43.20
13093;DHT22;6612;49.568;11.000;2023-04-03T15:24:08;12.10;43.20
13093;DHT22;6612;49.568;11.000;2023-04-03T15:26:36;12.10;42.90
13093;DHT22;6612;49.568;11.000;2023-04-03T15:29:04;12.00;43.10
13093;DHT22;6612;49.568;11.000;2023-04-03T15:31:32;12.10;43.30
13093;DHT22;6612;49.568;11.000;2023-04-03T15:34:01;12.00;43.10
13093;DHT22;6612;49.568;11.000;2023-04-03T15:36:29;12.00;42.60
13093;DHT22;6612;49.568;11.000;2023-04-03T15:38:57;11.90;42.90
13093;DHT22;6612;49.568;11.000;2023-04-03T15:41:24;11.80;42.50
13093;DHT22;6612;49.568;11.000;2023-04-03T15:43:51;11.80;42.80
13093;DHT22;6612;49.568;11.000;2023-04-03T15:46:18;11.70;42.40
13093;DHT22;6612;49.568;11.000;2023-04-03T15:48:46;11.70;42.30
13093;DHT22;6612;49.568;11.000;2023-04-03T15:51:16;11.60;42.30
13093;DHT22;6612;49.568;11.000;2023-04-03T15:53:43;11.50;41.90
13093;DHT22;6612;49.568;11.000;2023-04-03T15:56:11;11.50;42.00
13093;DHT22;6612;49.568;11.000;2023-04-03T15:58:38;11.40;41.60
13093;DHT22;6612;49.568;11.000;2023-04-03T16:01:06;11.30;42.30
13093;DHT22;6612;49.568;11.000;2023-04-03T16:03:33;11.30;42.20
13093;DHT22;6612;49.568;11.000;2023-04-03T16:06:01;11.20;42.40